Terminal Aerodrome Forecast
Issued by NWS Wilmington, OH

Current Version | Previous Version | Text Only | Print | Product List | Glossary Off
Versions: 1 2 3 4 5 6 7 8 9 10 11 12 13 14 15 16 17 18 19 20 21 22 23 24 25 26 27 28 29

936
FTUS41 KILN 131608 AAB
TAFCVG
TAF AMD
KCVG 131608Z 1316/1418 19014G22KT P6SM BKN120
     FM132200 23015G26KT P6SM OVC080
     FM140100 27017G29KT P6SM OVC040
     FM140800 31012KT P6SM OVC025
     FM141200 35008KT P6SM OVC025
     FM141600 35007KT P6SM SCT030=

USA.gov is the U.S. government's official web portal to all federal, state and local government web resources and services.